createdAt,value
2023-03-16T00:00:23.076Z,2.33
2023-03-16T00:05:25.892Z,2.31
2023-03-16T00:10:29.251Z,2.28
2023-03-16T00:15:31.130Z,2.25
2023-03-16T00:20:33.600Z,2.22
2023-03-16T00:25:36.853Z,2.20
2023-03-16T00:30:38.596Z,2.23
2023-03-16T00:35:40.300Z,2.14
2023-03-16T00:40:43.386Z,2.06
2023-03-16T00:45:45.204Z,2.05
2023-03-16T00:50:46.951Z,1.97
2023-03-16T00:55:50.096Z,1.95
2023-03-16T01:00:54.308Z,1.93
2023-03-16T01:05:59.979Z,1.91
2023-03-16T01:11:06.388Z,1.77
2023-03-16T01:16:09.263Z,1.70
2023-03-16T01:21:13.701Z,1.60
2023-03-16T01:26:18.049Z,1.60
2023-03-16T01:31:21.688Z,1.57
2023-03-16T01:36:23.546Z,1.65
2023-03-16T01:41:31.148Z,1.56
2023-03-16T01:46:33.248Z,1.49
2023-03-16T01:51:37.907Z,1.45
2023-03-16T01:56:42.348Z,1.44
2023-03-16T02:01:44.175Z,1.52
2023-03-16T02:06:45.988Z,1.48
2023-03-16T02:11:49.106Z,1.45
2023-03-16T02:16:50.948Z,1.47
2023-03-16T02:21:55.305Z,1.52
2023-03-16T02:26:59.457Z,1.51
2023-03-16T02:32:07.505Z,1.52
2023-03-16T02:37:09.287Z,1.51
2023-03-16T02:42:12.347Z,1.51
2023-03-16T02:47:18.101Z,1.45
2023-03-16T02:52:19.983Z,1.39
2023-03-16T02:57:21.915Z,1.38
2023-03-16T03:02:25.495Z,1.38
2023-03-16T03:07:31.791Z,1.30
2023-03-16T03:12:38.241Z,1.23
2023-03-16T03:17:44.292Z,1.14
2023-03-16T03:22:47.789Z,1.14
2023-03-16T03:27:50.115Z,1.16
2023-03-16T03:32:56.682Z,1.09
2023-03-16T03:37:58.590Z,1.05
2023-03-16T03:43:01.486Z,1.04
2023-03-16T03:48:06.109Z,1.02
2023-03-16T03:53:08.839Z,0.95
2023-03-16T03:58:22.668Z,0.58
2023-03-16T04:03:26.004Z,0.51
2023-03-16T04:08:28.291Z,0.60
2023-03-16T04:13:30.141Z,0.67
2023-03-16T04:18:38.507Z,0.69
2023-03-16T04:23:42.568Z,0.79
2023-03-16T04:28:44.349Z,0.81
2023-03-16T04:33:50.813Z,0.71
2023-03-16T04:38:52.943Z,0.65
2023-03-16T04:43:54.731Z,0.59
2023-03-16T04:49:00.315Z,0.35
2023-03-16T04:54:03.699Z,0.44
2023-03-16T04:59:10.690Z,0.50
2023-03-16T05:04:24.537Z,0.49
2023-03-16T05:09:26.566Z,0.48
2023-03-16T05:14:28.334Z,0.35
2023-03-16T05:19:45.274Z,0.32
2023-03-16T05:24:48.345Z,0.35
2023-03-16T05:29:50.335Z,0.36
2023-03-16T05:34:53.534Z,0.45
2023-03-16T05:39:57.636Z,0.47
2023-03-16T05:44:59.662Z,0.48
2023-03-16T05:50:14.187Z,0.54
2023-03-16T05:55:17.787Z,0.62
2023-03-16T06:00:25.780Z,0.66
2023-03-16T06:05:39.764Z,0.57
2023-03-16T06:10:42.133Z,0.64
2023-03-16T06:15:44.281Z,0.71
2023-03-16T06:20:48.580Z,0.96
2023-03-16T06:25:50.530Z,4.57
2023-03-16T06:30:56.486Z,6.57
2023-03-16T06:36:02.642Z,8.19
2023-03-16T06:41:17.746Z,9.58
2023-03-16T06:46:21.434Z,9.47
2023-03-16T06:51:24.757Z,10.02
2023-03-16T06:56:27.879Z,11.61
2023-03-16T07:01:31.819Z,10.00
2023-03-16T07:06:35.186Z,9.42
2023-03-16T07:11:36.997Z,9.58
2023-03-16T07:16:38.767Z,8.53
2023-03-16T07:21:43.804Z,7.88
2023-03-16T07:26:50.021Z,7.56
2023-03-16T07:32:00.601Z,7.56
2023-03-16T07:37:11.641Z,7.53
2023-03-16T07:42:14.614Z,7.95
2023-03-16T07:47:38.682Z,8.44
2023-03-16T07:53:00.540Z,9.06
2023-03-16T07:58:04.929Z,10.20
2023-03-16T08:03:08.630Z,13.01
2023-03-16T08:08:12.497Z,15.58
2023-03-16T08:13:15.430Z,15.46
2023-03-16T08:18:19.348Z,16.29
2023-03-16T08:23:24.136Z,20.65
2023-03-16T08:28:26.273Z,22.50
2023-03-16T08:33:30.015Z,23.59
2023-03-16T08:38:33.665Z,24.35
2023-03-16T08:43:39.417Z,25.61
2023-03-16T08:48:41.680Z,26.37
2023-03-16T08:53:45.244Z,27.08
2023-03-16T08:58:47.168Z,28.41
2023-03-16T09:03:48.890Z,28.64
2023-03-16T09:08:53.419Z,29.38
2023-03-16T09:13:55.101Z,30.11
2023-03-16T09:18:56.797Z,29.40
2023-03-16T09:24:00.234Z,29.74
2023-03-16T09:29:02.168Z,27.49
2023-03-16T09:34:04.818Z,26.79
2023-03-16T09:39:07.889Z,23.62
2023-03-16T09:44:13.668Z,20.51
2023-03-16T09:49:16.576Z,20.98
2023-03-16T09:54:23.576Z,21.45
2023-03-16T09:59:25.444Z,21.56
2023-03-16T10:04:35.612Z,24.07
2023-03-16T10:09:42.484Z,25.87
2023-03-16T10:14:46.977Z,25.81
2023-03-16T10:19:49.822Z,24.21
2023-03-16T10:24:57.905Z,27.23
2023-03-16T10:30:01.175Z,27.24
2023-03-16T10:35:06.091Z,28.02
2023-03-16T10:40:12.718Z,27.77
2023-03-16T10:45:22.990Z,27.29
2023-03-16T10:50:25.340Z,27.61
2023-03-16T10:55:31.142Z,27.18
2023-03-16T11:00:36.079Z,26.01
2023-03-16T11:05:38.205Z,24.93
2023-03-16T11:10:54.726Z,24.61
2023-03-16T11:16:01.581Z,23.92
2023-03-16T11:21:06.742Z,19.40
2023-03-16T11:26:12.675Z,16.29
2023-03-16T11:31:19.983Z,15.11
2023-03-16T11:36:29.922Z,14.75
2023-03-16T11:41:38.207Z,14.43
2023-03-16T11:46:41.920Z,13.93
2023-03-16T11:51:47.363Z,13.14
2023-03-16T11:56:52.739Z,12.62
2023-03-16T12:02:02.664Z,12.56
2023-03-16T12:07:12.168Z,12.66
2023-03-16T12:12:23.086Z,12.63
2023-03-16T12:17:25.732Z,12.66
2023-03-16T12:22:28.395Z,12.95
2023-03-16T12:27:33.236Z,12.92
2023-03-16T12:32:40.982Z,12.82
2023-03-16T12:37:44.621Z,13.30
2023-03-16T12:43:13.900Z,13.23
2023-03-16T12:48:20.393Z,13.13
2023-03-16T12:53:29.008Z,12.88
2023-03-16T12:58:32.940Z,12.58
2023-03-16T13:03:34.720Z,12.49
2023-03-16T13:08:41.253Z,12.46
2023-03-16T13:13:52.517Z,12.63
2023-03-16T13:18:54.789Z,13.08
2023-03-16T13:23:58.347Z,13.05
2023-03-16T13:29:06.324Z,12.81
2023-03-16T13:34:11.748Z,12.53
2023-03-16T13:39:15.370Z,12.29
2023-03-16T13:44:18.697Z,12.34
2023-03-16T13:49:20.469Z,12.08
2023-03-16T13:54:23.887Z,11.78
2023-03-16T13:59:26.930Z,11.54
2023-03-16T14:04:29.757Z,11.44
2023-03-16T14:09:33.140Z,11.41
2023-03-16T14:14:39.346Z,11.15
2023-03-16T14:19:44.366Z,11.30
2023-03-16T14:24:47.935Z,11.19
2023-03-16T14:29:56.838Z,11.17
2023-03-16T14:35:13.022Z,11.11
2023-03-16T14:40:24.245Z,11.10
2023-03-16T14:45:31.648Z,11.03
2023-03-16T14:50:34.579Z,10.99
2023-03-16T14:55:37.544Z,10.93
2023-03-16T15:00:52.251Z,10.74
2023-03-16T15:05:54.994Z,10.71
2023-03-16T15:10:57.269Z,10.58
2023-03-16T15:16:00.640Z,10.51
2023-03-16T15:21:02.812Z,10.33
2023-03-16T15:26:07.374Z,10.30
2023-03-16T15:31:12.335Z,10.28
2023-03-16T15:36:14.907Z,10.23
2023-03-16T15:41:17.016Z,10.17
2023-03-16T15:46:21.211Z,10.07
2023-03-16T15:51:24.537Z,10.12
2023-03-16T15:56:30.152Z,10.03
2023-03-16T16:01:38.260Z,9.92
2023-03-16T16:06:39.920Z,9.84
2023-03-16T16:11:41.639Z,9.80
2023-03-16T16:16:45.805Z,9.75
2023-03-16T16:21:47.857Z,9.74
2023-03-16T16:26:54.371Z,9.65
2023-03-16T16:31:59.019Z,9.61
2023-03-16T16:37:01.163Z,9.57
2023-03-16T16:42:03.165Z,9.54
2023-03-16T16:47:11.164Z,9.44
2023-03-16T16:52:14.315Z,9.37
2023-03-16T16:57:18.243Z,9.22
2023-03-16T17:02:28.379Z,9.17
2023-03-16T17:07:30.733Z,9.13
2023-03-16T17:12:32.435Z,9.00
2023-03-16T17:17:35.805Z,9.02
2023-03-16T17:22:37.507Z,8.93
2023-03-16T17:27:39.261Z,8.81
2023-03-16T17:32:42.319Z,8.75
2023-03-16T17:37:47.286Z,8.68
2023-03-16T17:42:49.102Z,8.64
2023-03-16T17:47:52.910Z,8.53
2023-03-16T17:52:54.737Z,8.47
2023-03-16T17:57:56.422Z,8.37
2023-03-16T18:03:00.793Z,8.34
2023-03-16T18:08:10.699Z,8.29
2023-03-16T18:13:17.782Z,8.19
2023-03-16T18:18:22.316Z,8.18
2023-03-16T18:23:26.193Z,8.10
2023-03-16T18:28:28.710Z,8.10
2023-03-16T18:33:32.758Z,8.06
2023-03-16T18:38:35.672Z,7.96
2023-03-16T18:43:37.578Z,7.95
2023-03-16T18:48:40.605Z,7.96
2023-03-16T18:53:42.898Z,7.89
2023-03-16T18:58:45.706Z,7.83
2023-03-16T19:03:49.630Z,7.78
2023-03-16T19:08:51.570Z,7.77
2023-03-16T19:13:54.700Z,7.77
2023-03-16T19:18:57.839Z,7.75
2023-03-16T19:24:00.794Z,7.77
2023-03-16T19:29:02.741Z,7.75
2023-03-16T19:34:06.020Z,7.71
2023-03-16T19:39:08.305Z,7.61
2023-03-16T19:44:13.976Z,7.51
2023-03-16T19:49:18.284Z,7.51
2023-03-16T19:54:21.739Z,7.42
2023-03-16T19:59:24.419Z,7.35
2023-03-16T20:04:28.060Z,7.28
2023-03-16T20:09:30.023Z,7.25
2023-03-16T20:14:32.465Z,7.20
2023-03-16T20:19:35.501Z,7.19
2023-03-16T20:24:37.242Z,7.16
2023-03-16T20:29:39.415Z,7.13
2023-03-16T20:34:42.457Z,7.07
2023-03-16T20:39:45.120Z,7.03
2023-03-16T20:44:47.578Z,6.99
2023-03-16T20:49:50.880Z,6.97
2023-03-16T20:54:52.605Z,6.95
2023-03-16T20:59:55.337Z,6.91
2023-03-16T21:04:59.258Z,6.92
2023-03-16T21:10:01.378Z,6.90
2023-03-16T21:15:07.974Z,6.90
2023-03-16T21:20:15.927Z,6.97
2023-03-16T21:25:19.443Z,6.94
2023-03-16T21:30:24.590Z,6.93
2023-03-16T21:35:32.306Z,6.90
2023-03-16T21:40:34.221Z,6.85
2023-03-16T21:45:36.009Z,6.78
2023-03-16T21:50:39.501Z,6.79
2023-03-16T21:55:41.357Z,6.84
2023-03-16T22:00:43.208Z,6.75
2023-03-16T22:05:46.404Z,6.73
2023-03-16T22:10:48.323Z,6.77
2023-03-16T22:15:51.554Z,6.76
2023-03-16T22:20:54.672Z,6.81
2023-03-16T22:25:56.472Z,6.77
2023-03-16T22:30:58.728Z,6.76
2023-03-16T22:36:04.823Z,6.75
2023-03-16T22:41:06.642Z,6.67
2023-03-16T22:46:11.590Z,6.66
2023-03-16T22:51:18.876Z,6.66
2023-03-16T22:56:20.664Z,6.62
2023-03-16T23:01:24.275Z,6.65
2023-03-16T23:06:28.365Z,6.63
2023-03-16T23:11:31.339Z,6.50
2023-03-16T23:16:34.111Z,6.46
2023-03-16T23:21:37.840Z,6.42
2023-03-16T23:26:39.730Z,6.37
2023-03-16T23:31:41.604Z,6.36
2023-03-16T23:36:44.675Z,6.40
2023-03-16T23:41:47.743Z,6.42
2023-03-16T23:46:49.440Z,6.45
2023-03-16T23:51:52.503Z,6.47
2023-03-16T23:56:54.273Z,6.45
